Aérodrome :
LOGIN :

S'inscrire | Disclaimer

   EN    FR    IT 

 










Légende :    VFR   VFR Marginal   IFR   IFR Intensif   IFR Très Intensif
Visi : 
Plafond : 
>= 8 km
>= 3000ft
5 à 8 km
1000 à 3000 ft
1500m à 5 km
500 à 1000 ft
800 à 1500m
200 à 500 ft
< 800m
< 200 ft
Symboles :   Orages  Brouillard  Fortes neiges  Fortes précipitations  Vent > 20 kt
SIGMETs :   Divers  Orages  Givrage  Turbulence  Onde Orograph.  Cendres Volcan.






- Altitude de l'aérodrome : 17 ft
- Code IATA : GRQ


EHGG - Groningen Eelde

DERNIER METAR :
  • 220725Z AUTO 14004KT 110V170 6000 SCT042 OVC049 03/02 Q1005 NOSIG

METARs EXPIRÉS :
  • 220655Z AUTO 13005KT 090V160 5000 BR NSC 03/02 Q1005 BECMG NSW
  • 220625Z AUTO 12003KT 080V160 4000 BR NSC 02/01 Q1005 NOSIG
  • 220555Z AUTO 11004KT 3800 BR NSC 02/01 Q1005 NOSIG
  • 220525Z AUTO 11005KT 3900 BR NSC 02/01 Q1005 NOSIG
  • 220455Z AUTO 12005KT 090V160 3700 BR NSC 02/02 Q1005 NOSIG

TAF TAF EHGG
Valide du 22 à 06h jusqu'au 23 à 12h UTC


220512Z 2206/2312 13007KT 4000 BR BKN045
BECMG 2206/2209 16010KT 7000 NSW
BECMG 2209/2212 CAVOK
BECMG 2219/2222 10010KT 4000 BR
PROB40 2222/2309 2000 BKN002
BECMG 2308/2311 CAVOK



MET'MAP, la Météo Aéronautique d'un coup d'oeil ! - Copyright ORBIFLY Décembre 2007 - Disclaimer

ORBIFLY MET'MAP TEAM :

Programmation & Développement : Alexandra Zaïnal
Conception & Développement : Baudouin d'Aumeries
Co-Programmation & Développement : Marc-Olivier Méhu
Soutien technique & logistique : Manuel Goepfert

Contact : metmap@orbifly.com




SOURCES & CREDITS :

   NOAA